sensor_id;sensor_type;location;lat;lon;timestamp;pressure;altitude;pressure_sealevel;temperature
73734;BMP280;62039;50.000;9.064;2023-04-15T00:01:45;99450.69;;;7.95
73734;BMP280;62039;50.000;9.064;2023-04-15T00:04:12;99445.81;;;7.92
73734;BMP280;62039;50.000;9.064;2023-04-15T00:06:39;99450.19;;;7.92
73734;BMP280;62039;50.000;9.064;2023-04-15T00:09:06;99445.34;;;7.89
73734;BMP280;62039;50.000;9.064;2023-04-15T00:11:33;99443.88;;;7.86
73734;BMP280;62039;50.000;9.064;2023-04-15T00:13:59;99445.81;;;7.84
73734;BMP280;62039;50.000;9.064;2023-04-15T00:16:26;99450.38;;;7.82
73734;BMP280;62039;50.000;9.064;2023-04-15T00:18:56;99449.72;;;7.80
73734;BMP280;62039;50.000;9.064;2023-04-15T00:21:23;99447.44;;;7.77
73734;BMP280;62039;50.000;9.064;2023-04-15T00:23:50;99452.00;;;7.75
73734;BMP280;62039;50.000;9.064;2023-04-15T00:26:17;99443.53;;;7.73
73734;BMP280;62039;50.000;9.064;2023-04-15T00:28:44;99442.25;;;7.69
73734;BMP280;62039;50.000;9.064;2023-04-15T00:31:11;99443.53;;;7.65
73734;BMP280;62039;50.000;9.064;2023-04-15T00:33:38;99440.28;;;7.63
73734;BMP280;62039;50.000;9.064;2023-04-15T00:36:08;99442.25;;;7.61
73734;BMP280;62039;50.000;9.064;2023-04-15T00:38:37;99447.75;;;7.58
73734;BMP280;62039;50.000;9.064;2023-04-15T00:41:04;99438.50;;;7.55
73734;BMP280;62039;50.000;9.064;2023-04-15T00:43:31;99442.22;;;7.53
73734;BMP280;62039;50.000;9.064;2023-04-15T00:45:58;99431.16;;;7.51
73734;BMP280;62039;50.000;9.064;2023-04-15T00:48:27;99444.28;;;7.49
73734;BMP280;62039;50.000;9.064;2023-04-15T00:50:54;99440.25;;;7.46
73734;BMP280;62039;50.000;9.064;2023-04-15T00:53:23;99437.81;;;7.45
73734;BMP280;62039;50.000;9.064;2023-04-15T00:55:50;99434.72;;;7.41
73734;BMP280;62039;50.000;9.064;2023-04-15T00:58:17;99435.69;;;7.40
73734;BMP280;62039;50.000;9.064;2023-04-15T01:00:44;99436.00;;;7.37
73734;BMP280;62039;50.000;9.064;2023-04-15T01:03:11;99438.75;;;7.36
73734;BMP280;62039;50.000;9.064;2023-04-15T01:05:39;99433.91;;;7.33
73734;BMP280;62039;50.000;9.064;2023-04-15T01:08:06;99427.22;;;7.30
73734;BMP280;62039;50.000;9.064;2023-04-15T01:10:35;99428.38;;;7.28
73734;BMP280;62039;50.000;9.064;2023-04-15T01:13:02;99426.91;;;7.25
73734;BMP280;62039;50.000;9.064;2023-04-15T01:15:29;99426.25;;;7.23
73734;BMP280;62039;50.000;9.064;2023-04-15T01:17:56;99430.00;;;7.21
73734;BMP280;62039;50.000;9.064;2023-04-15T01:20:23;99429.31;;;7.19
73734;BMP280;62039;50.000;9.064;2023-04-15T01:22:50;99427.84;;;7.16
73734;BMP280;62039;50.000;9.064;2023-04-15T01:25:18;99429.81;;;7.14
73734;BMP280;62039;50.000;9.064;2023-04-15T01:27:48;99431.75;;;7.12
73734;BMP280;62039;50.000;9.064;2023-04-15T01:30:15;99423.28;;;7.10
73734;BMP280;62039;50.000;9.064;2023-04-15T01:32:42;99430.44;;;7.08
73734;BMP280;62039;50.000;9.064;2023-04-15T01:35:09;99434.00;;;7.07
73734;BMP280;62039;50.000;9.064;2023-04-15T01:37:36;99431.72;;;7.04
73734;BMP280;62039;50.000;9.064;2023-04-15T01:40:04;99431.88;;;7.02
73734;BMP280;62039;50.000;9.064;2023-04-15T01:42:32;99435.78;;;6.98
73734;BMP280;62039;50.000;9.064;2023-04-15T01:45:01;99434.97;;;6.98
73734;BMP280;62039;50.000;9.064;2023-04-15T01:47:28;99441.25;;;6.95
73734;BMP280;62039;50.000;9.064;2023-04-15T01:49:55;99436.41;;;6.92
73734;BMP280;62039;50.000;9.064;2023-04-15T01:52:22;99434.78;;;6.91
73734;BMP280;62039;50.000;9.064;2023-04-15T01:54:50;99433.97;;;6.91
73734;BMP280;62039;50.000;9.064;2023-04-15T01:57:17;99439.47;;;6.88
73734;BMP280;62039;50.000;9.064;2023-04-15T01:59:44;99441.41;;;6.86
73734;BMP280;62039;50.000;9.064;2023-04-15T02:02:13;99438.16;;;6.84
73734;BMP280;62039;50.000;9.064;2023-04-15T02:04:40;99442.03;;;6.80
73734;BMP280;62039;50.000;9.064;2023-04-15T02:07:07;99441.53;;;6.76
73734;BMP280;62039;50.000;9.064;2023-04-15T02:09:34;99444.59;;;6.72
73734;BMP280;62039;50.000;9.064;2023-04-15T02:12:01;99436.97;;;6.70
73734;BMP280;62039;50.000;9.064;2023-04-15T02:14:28;99439.72;;;6.68
73734;BMP280;62039;50.000;9.064;2023-04-15T02:16:55;99438.91;;;6.68
73734;BMP280;62039;50.000;9.064;2023-04-15T02:19:24;99443.28;;;6.68
73734;BMP280;62039;50.000;9.064;2023-04-15T02:21:51;99440.03;;;6.65
73734;BMP280;62039;50.000;9.064;2023-04-15T02:24:18;99446.19;;;6.64
73734;BMP280;62039;50.000;9.064;2023-04-15T02:26:45;99448.78;;;6.64
73734;BMP280;62039;50.000;9.064;2023-04-15T02:29:12;99450.72;;;6.62
73734;BMP280;62039;50.000;9.064;2023-04-15T02:31:39;99455.91;;;6.62
73734;BMP280;62039;50.000;9.064;2023-04-15T02:34:06;99454.28;;;6.61
73734;BMP280;62039;50.000;9.064;2023-04-15T02:36:36;99442.44;;;6.59
73734;BMP280;62039;50.000;9.064;2023-04-15T02:39:04;99446.97;;;6.57
73734;BMP280;62039;50.000;9.064;2023-04-15T02:41:31;99442.91;;;6.54
73734;BMP280;62039;50.000;9.064;2023-04-15T02:43:58;99451.66;;;6.53
73734;BMP280;62039;50.000;9.064;2023-04-15T02:46:25;99450.03;;;6.52
73734;BMP280;62039;50.000;9.064;2023-04-15T02:48:52;99446.78;;;6.50
73734;BMP280;62039;50.000;9.064;2023-04-15T02:51:20;99449.50;;;6.49
73734;BMP280;62039;50.000;9.064;2023-04-15T02:53:49;99442.72;;;6.48
73734;BMP280;62039;50.000;9.064;2023-04-15T02:56:16;99448.06;;;6.46
73734;BMP280;62039;50.000;9.064;2023-04-15T02:58:44;99451.63;;;6.45
73734;BMP280;62039;50.000;9.064;2023-04-15T03:01:11;99449.16;;;6.44
73734;BMP280;62039;50.000;9.064;2023-04-15T03:03:38;99455.31;;;6.43
73734;BMP280;62039;50.000;9.064;2023-04-15T03:06:05;99446.72;;;6.42
73734;BMP280;62039;50.000;9.064;2023-04-15T03:08:31;99447.69;;;6.41
73734;BMP280;62039;50.000;9.064;2023-04-15T03:11:01;99448.69;;;6.40
73734;BMP280;62039;50.000;9.064;2023-04-15T03:13:28;99443.63;;;6.39
73734;BMP280;62039;50.000;9.064;2023-04-15T03:15:55;99439.41;;;6.38
73734;BMP280;62039;50.000;9.064;2023-04-15T03:18:22;99443.63;;;6.39
73734;BMP280;62039;50.000;9.064;2023-04-15T03:20:49;99437.75;;;6.37
73734;BMP280;62039;50.000;9.064;2023-04-15T03:23:16;99439.66;;;6.35
73734;BMP280;62039;50.000;9.064;2023-04-15T03:25:43;99436.28;;;6.34
73734;BMP280;62039;50.000;9.064;2023-04-15T03:28:13;99434.66;;;6.33
73734;BMP280;62039;50.000;9.064;2023-04-15T03:30:40;99435.63;;;6.32
73734;BMP280;62039;50.000;9.064;2023-04-15T03:33:07;99438.38;;;6.31
73734;BMP280;62039;50.000;9.064;2023-04-15T03:35:34;99426.50;;;6.28
73734;BMP280;62039;50.000;9.064;2023-04-15T03:38:01;99431.69;;;6.28
73734;BMP280;62039;50.000;9.064;2023-04-15T03:40:28;99430.91;;;6.27
73734;BMP280;62039;50.000;9.064;2023-04-15T03:42:55;99425.06;;;6.25
73734;BMP280;62039;50.000;9.064;2023-04-15T03:45:24;99431.06;;;6.26
73734;BMP280;62039;50.000;9.064;2023-04-15T03:47:51;99437.19;;;6.25
73734;BMP280;62039;50.000;9.064;2023-04-15T03:50:18;99433.94;;;6.23
73734;BMP280;62039;50.000;9.064;2023-04-15T03:52:45;99435.72;;;6.22
73734;BMP280;62039;50.000;9.064;2023-04-15T03:55:12;99431.50;;;6.21
73734;BMP280;62039;50.000;9.064;2023-04-15T03:57:39;99432.47;;;6.20
73734;BMP280;62039;50.000;9.064;2023-04-15T04:00:07;99437.66;;;6.20
73734;BMP280;62039;50.000;9.064;2023-04-15T04:02:37;99438.63;;;6.19
73734;BMP280;62039;50.000;9.064;2023-04-15T04:05:05;99439.75;;;6.17
73734;BMP280;62039;50.000;9.064;2023-04-15T04:07:32;99438.78;;;6.18
73734;BMP280;62039;50.000;9.064;2023-04-15T04:09:59;99442.34;;;6.17
73734;BMP280;62039;50.000;9.064;2023-04-15T04:12:25;99438.09;;;6.16
73734;BMP280;62039;50.000;9.064;2023-04-15T04:14:52;99438.25;;;6.14
73734;BMP280;62039;50.000;9.064;2023-04-15T04:17:19;99440.84;;;6.14
73734;BMP280;62039;50.000;9.064;2023-04-15T04:19:49;99446.84;;;6.15
73734;BMP280;62039;50.000;9.064;2023-04-15T04:22:16;99446.22;;;6.13
73734;BMP280;62039;50.000;9.064;2023-04-15T04:24:43;99447.03;;;6.13
73734;BMP280;62039;50.000;9.064;2023-04-15T04:27:10;99443.63;;;6.13
73734;BMP280;62039;50.000;9.064;2023-04-15T04:29:37;99441.16;;;6.11
73734;BMP280;62039;50.000;9.064;2023-04-15T04:32:04;99436.78;;;6.12
73734;BMP280;62039;50.000;9.064;2023-04-15T04:34:31;99449.75;;;6.12
73734;BMP280;62039;50.000;9.064;2023-04-15T04:37:00;99445.53;;;6.11
73734;BMP280;62039;50.000;9.064;2023-04-15T04:39:27;99451.69;;;6.10
73734;BMP280;62039;50.000;9.064;2023-04-15T04:41:54;99450.88;;;6.09
73734;BMP280;62039;50.000;9.064;2023-04-15T04:44:21;99455.25;;;6.09
73734;BMP280;62039;50.000;9.064;2023-04-15T04:46:48;99453.59;;;6.08
73734;BMP280;62039;50.000;9.064;2023-04-15T04:49:15;99461.38;;;6.08
73734;BMP280;62039;50.000;9.064;2023-04-15T04:51:42;99457.19;;;6.07
73734;BMP280;62039;50.000;9.064;2023-04-15T04:54:11;99458.97;;;6.06
73734;BMP280;62039;50.000;9.064;2023-04-15T04:56:38;99455.56;;;6.06
73734;BMP280;62039;50.000;9.064;2023-04-15T04:59:05;99461.69;;;6.05
73734;BMP280;62039;50.000;9.064;2023-04-15T05:01:32;99463.34;;;6.06
73734;BMP280;62039;50.000;9.064;2023-04-15T05:03:59;99468.53;;;6.06
73734;BMP280;62039;50.000;9.064;2023-04-15T05:06:26;99458.16;;;6.06
73734;BMP280;62039;50.000;9.064;2023-04-15T05:08:53;99455.56;;;6.06
73734;BMP280;62039;50.000;9.064;2023-04-15T05:11:23;99453.94;;;6.05
73734;BMP280;62039;50.000;9.064;2023-04-15T05:13:49;99456.53;;;6.05
73734;BMP280;62039;50.000;9.064;2023-04-15T05:16:16;99461.69;;;6.05
73734;BMP280;62039;50.000;9.064;2023-04-15T05:18:43;99452.16;;;6.05
73734;BMP280;62039;50.000;9.064;2023-04-15T05:21:10;99446.97;;;6.05
73734;BMP280;62039;50.000;9.064;2023-04-15T05:23:38;99458.16;;;6.06
73734;BMP280;62039;50.000;9.064;2023-04-15T05:26:05;99459.78;;;6.07
73734;BMP280;62039;50.000;9.064;2023-04-15T05:28:34;99466.56;;;6.08
73734;BMP280;62039;50.000;9.064;2023-04-15T05:31:01;99473.38;;;6.09
73734;BMP280;62039;50.000;9.064;2023-04-15T05:33:28;99471.63;;;6.09
73734;BMP280;62039;50.000;9.064;2023-04-15T05:35:55;99475.84;;;6.10
73734;BMP280;62039;50.000;9.064;2023-04-15T05:38:22;99474.72;;;6.13
73734;BMP280;62039;50.000;9.064;2023-04-15T05:40:49;99480.72;;;6.13
73734;BMP280;62039;50.000;9.064;2023-04-15T05:43:16;99489.16;;;6.15
73734;BMP280;62039;50.000;9.064;2023-04-15T05:45:45;99483.81;;;6.17
73734;BMP280;62039;50.000;9.064;2023-04-15T05:48:12;99480.28;;;6.18
73734;BMP280;62039;50.000;9.064;2023-04-15T05:50:40;99481.91;;;6.19
73734;BMP280;62039;50.000;9.064;2023-04-15T05:53:07;99486.28;;;6.18
73734;BMP280;62039;50.000;9.064;2023-04-15T05:55:34;99479.97;;;6.21
73734;BMP280;62039;50.000;9.064;2023-04-15T05:58:01;99491.00;;;6.23
73734;BMP280;62039;50.000;9.064;2023-04-15T06:00:28;99484.03;;;6.23
73734;BMP280;62039;50.000;9.064;2023-04-15T06:02:57;99496.84;;;6.25
73734;BMP280;62039;50.000;9.064;2023-04-15T06:05:24;99493.28;;;6.26
73734;BMP280;62039;50.000;9.064;2023-04-15T06:07:51;99490.56;;;6.27
73734;BMP280;62039;50.000;9.064;2023-04-15T06:10:18;99487.66;;;6.31
73734;BMP280;62039;50.000;9.064;2023-04-15T06:12:45;99491.72;;;6.33
73734;BMP280;62039;50.000;9.064;2023-04-15T06:15:12;99484.59;;;6.35
73734;BMP280;62039;50.000;9.064;2023-04-15T06:17:39;99488.56;;;6.39
73734;BMP280;62039;50.000;9.064;2023-04-15T06:20:10;99485.47;;;6.44
73734;BMP280;62039;50.000;9.064;2023-04-15T06:22:37;99487.78;;;6.47
73734;BMP280;62039;50.000;9.064;2023-04-15T06:25:06;99499.63;;;6.49
73734;BMP280;62039;50.000;9.064;2023-04-15T06:27:33;99493.31;;;6.52
73734;BMP280;62039;50.000;9.064;2023-04-15T06:29:59;99498.38;;;6.53
73734;BMP280;62039;50.000;9.064;2023-04-15T06:32:26;99508.41;;;6.56
73734;BMP280;62039;50.000;9.064;2023-04-15T06:34:53;99499.53;;;6.59
73734;BMP280;62039;50.000;9.064;2023-04-15T06:37:23;99501.78;;;6.62
73734;BMP280;62039;50.000;9.064;2023-04-15T06:39:50;99504.25;;;6.63
73734;BMP280;62039;50.000;9.064;2023-04-15T06:42:17;99502.00;;;6.68
73734;BMP280;62039;50.000;9.064;2023-04-15T06:44:44;99512.91;;;6.72
73734;BMP280;62039;50.000;9.064;2023-04-15T06:47:11;99508.88;;;6.78
73734;BMP280;62039;50.000;9.064;2023-04-15T06:49:37;99512.75;;;6.82
73734;BMP280;62039;50.000;9.064;2023-04-15T06:52:04;99518.31;;;6.87
73734;BMP280;62039;50.000;9.064;2023-04-15T06:54:34;99515.09;;;6.93
73734;BMP280;62039;50.000;9.064;2023-04-15T06:57:01;99516.41;;;6.97
73734;BMP280;62039;50.000;9.064;2023-04-15T06:59:31;99516.75;;;7.02
73734;BMP280;62039;50.000;9.064;2023-04-15T07:01:58;99515.50;;;7.06
73734;BMP280;62039;50.000;9.064;2023-04-15T07:04:25;99513.22;;;7.11
73734;BMP280;62039;50.000;9.064;2023-04-15T07:06:52;99512.91;;;7.14
73734;BMP280;62039;50.000;9.064;2023-04-15T07:09:19;99513.25;;;7.19
73734;BMP280;62039;50.000;9.064;2023-04-15T07:11:48;99515.53;;;7.22
73734;BMP280;62039;50.000;9.064;2023-04-15T07:14:15;99507.28;;;7.27
73734;BMP280;62039;50.000;9.064;2023-04-15T07:16:42;99516.22;;;7.32
73734;BMP280;62039;50.000;9.064;2023-04-15T07:19:09;99521.75;;;7.37
73734;BMP280;62039;50.000;9.064;2023-04-15T07:21:36;99514.28;;;7.42
73734;BMP280;62039;50.000;9.064;2023-04-15T07:24:06;99516.28;;;7.49
73734;BMP280;62039;50.000;9.064;2023-04-15T07:26:33;99516.63;;;7.54
73734;BMP280;62039;50.000;9.064;2023-04-15T07:29:03;99511.44;;;7.62
73734;BMP280;62039;50.000;9.064;2023-04-15T07:31:30;99514.38;;;7.67
73734;BMP280;62039;50.000;9.064;2023-04-15T07:33:57;99511.44;;;7.70
73734;BMP280;62039;50.000;9.064;2023-04-15T07:36:24;99509.19;;;7.75
73734;BMP280;62039;50.000;9.064;2023-04-15T07:38:50;99516.19;;;7.74
73734;BMP280;62039;50.000;9.064;2023-04-15T07:41:17;99513.72;;;7.73
73734;BMP280;62039;50.000;9.064;2023-04-15T07:43:44;99518.41;;;7.69
73734;BMP280;62039;50.000;9.064;2023-04-15T07:46:14;99520.69;;;7.64
73734;BMP280;62039;50.000;9.064;2023-04-15T07:48:41;99517.94;;;7.58
73734;BMP280;62039;50.000;9.064;2023-04-15T07:51:08;99521.69;;;7.55
73734;BMP280;62039;50.000;9.064;2023-04-15T07:53:35;99521.81;;;7.54
73734;BMP280;62039;50.000;9.064;2023-04-15T07:56:01;99524.44;;;7.54
73734;BMP280;62039;50.000;9.064;2023-04-15T07:58:28;99524.44;;;7.54
73734;BMP280;62039;50.000;9.064;2023-04-15T08:00:55;99527.03;;;7.54
73734;BMP280;62039;50.000;9.064;2023-04-15T08:03:25;99528.00;;;7.53
73734;BMP280;62039;50.000;9.064;2023-04-15T08:05:52;99523.06;;;7.50
73734;BMP280;62039;50.000;9.064;2023-04-15T08:08:19;99523.56;;;7.45
73734;BMP280;62039;50.000;9.064;2023-04-15T08:10:46;99523.72;;;7.43
73734;BMP280;62039;50.000;9.064;2023-04-15T08:13:13;99523.06;;;7.41
73734;BMP280;62039;50.000;9.064;2023-04-15T08:15:40;99523.06;;;7.41
73734;BMP280;62039;50.000;9.064;2023-04-15T08:18:07;99517.53;;;7.44
73734;BMP280;62039;50.000;9.064;2023-04-15T08:20:36;99524.69;;;7.51
73734;BMP280;62039;50.000;9.064;2023-04-15T08:23:03;99521.00;;;7.53
73734;BMP280;62039;50.000;9.064;2023-04-15T08:25:30;99527.34;;;7.59
73734;BMP280;62039;50.000;9.064;2023-04-15T08:27:57;99520.69;;;7.64
73734;BMP280;62039;50.000;9.064;2023-04-15T08:30:24;99522.50;;;7.72
73734;BMP280;62039;50.000;9.064;2023-04-15T08:32:51;99520.72;;;7.80
73734;BMP280;62039;50.000;9.064;2023-04-15T08:35:18;99516.00;;;7.92
73734;BMP280;62039;50.000;9.064;2023-04-15T08:37:48;99511.28;;;8.04
73734;BMP280;62039;50.000;9.064;2023-04-15T08:40:15;99517.63;;;8.17
73734;BMP280;62039;50.000;9.064;2023-04-15T08:42:43;99514.38;;;8.32
73734;BMP280;62039;50.000;9.064;2023-04-15T08:45:12;99516.31;;;8.46
73734;BMP280;62039;50.000;9.064;2023-04-15T08:47:39;99510.56;;;8.58
73734;BMP280;62039;50.000;9.064;2023-04-15T08:50:08;99518.09;;;8.70
73734;BMP280;62039;50.000;9.064;2023-04-15T08:52:35;99519.81;;;8.77
73734;BMP280;62039;50.000;9.064;2023-04-15T08:55:07;99516.22;;;8.86
73734;BMP280;62039;50.000;9.064;2023-04-15T08:57:34;99519.47;;;8.96
73734;BMP280;62039;50.000;9.064;2023-04-15T09:00:03;99515.66;;;9.07
73734;BMP280;62039;50.000;9.064;2023-04-15T09:02:31;99508.25;;;9.19
73734;BMP280;62039;50.000;9.064;2023-04-15T09:04:58;99519.94;;;9.31
73734;BMP280;62039;50.000;9.064;2023-04-15T09:07:25;99522.81;;;9.44
73734;BMP280;62039;50.000;9.064;2023-04-15T09:09:52;99523.38;;;9.54
73734;BMP280;62039;50.000;9.064;2023-04-15T09:12:21;99518.31;;;9.61
73734;BMP280;62039;50.000;9.064;2023-04-15T09:14:48;99522.03;;;9.66
73734;BMP280;62039;50.000;9.064;2023-04-15T09:17:18;99523.78;;;9.74
73734;BMP280;62039;50.000;9.064;2023-04-15T09:19:46;99528.78;;;9.84
73734;BMP280;62039;50.000;9.064;2023-04-15T09:22:13;99526.44;;;9.89
73734;BMP280;62039;50.000;9.064;2023-04-15T09:24:40;99530.97;;;9.95
73734;BMP280;62039;50.000;9.064;2023-04-15T09:27:06;99539.06;;;10.00
73734;BMP280;62039;50.000;9.064;2023-04-15T09:29:36;99539.38;;;10.05
73734;BMP280;62039;50.000;9.064;2023-04-15T09:32:10;99535.44;;;10.09
73734;BMP280;62039;50.000;9.064;2023-04-15T09:34:37;99534.88;;;10.13
73734;BMP280;62039;50.000;9.064;2023-04-15T09:37:04;99540.22;;;10.20
73734;BMP280;62039;50.000;9.064;2023-04-15T09:39:47;99531.88;;;10.25
73734;BMP280;62039;50.000;9.064;2023-04-15T09:42:14;99531.50;;;10.28
73734;BMP280;62039;50.000;9.064;2023-04-15T09:44:44;99539.81;;;10.31
73734;BMP280;62039;50.000;9.064;2023-04-15T09:47:26;99554.13;;;10.35
73734;BMP280;62039;50.000;9.064;2023-04-15T09:49:56;99549.34;;;10.39
73734;BMP280;62039;50.000;9.064;2023-04-15T09:52:23;99545.56;;;10.41
73734;BMP280;62039;50.000;9.064;2023-04-15T09:54:52;99549.44;;;10.45
73734;BMP280;62039;50.000;9.064;2023-04-15T09:57:19;99555.13;;;10.49
73734;BMP280;62039;50.000;9.064;2023-04-15T09:59:48;99558.00;;;10.54
73734;BMP280;62039;50.000;9.064;2023-04-15T10:02:17;99559.63;;;10.55
73734;BMP280;62039;50.000;9.064;2023-04-15T10:04:45;99556.22;;;10.54
73734;BMP280;62039;50.000;9.064;2023-04-15T10:07:14;99564.88;;;10.55
73734;BMP280;62039;50.000;9.064;2023-04-15T10:09:42;99568.97;;;10.57
73734;BMP280;62039;50.000;9.064;2023-04-15T10:12:09;99567.78;;;10.60
73734;BMP280;62039;50.000;9.064;2023-04-15T10:14:37;99573.81;;;10.60
73734;BMP280;62039;50.000;9.064;2023-04-15T10:17:10;99572.81;;;10.62
73734;BMP280;62039;50.000;9.064;2023-04-15T10:19:37;99573.47;;;10.64
73734;BMP280;62039;50.000;9.064;2023-04-15T10:22:04;99580.31;;;10.65
73734;BMP280;62039;50.000;9.064;2023-04-15T10:24:32;99583.75;;;10.65
73734;BMP280;62039;50.000;9.064;2023-04-15T10:26:59;99583.53;;;10.67
73734;BMP280;62039;50.000;9.064;2023-04-15T10:29:28;99576.69;;;10.66
73734;BMP280;62039;50.000;9.064;2023-04-15T10:31:55;99578.69;;;10.64
73734;BMP280;62039;50.000;9.064;2023-04-15T10:34:26;99584.25;;;10.60
73734;BMP280;62039;50.000;9.064;2023-04-15T10:36:54;99585.88;;;10.62
73734;BMP280;62039;50.000;9.064;2023-04-15T10:39:45;99579.41;;;10.57
73734;BMP280;62039;50.000;9.064;2023-04-15T10:42:13;99587.25;;;10.57
73734;BMP280;62039;50.000;9.064;2023-04-15T10:44:42;99591.47;;;10.58
73734;BMP280;62039;50.000;9.064;2023-04-15T10:47:11;99594.09;;;10.58
73734;BMP280;62039;50.000;9.064;2023-04-15T10:49:48;99596.88;;;10.57
73734;BMP280;62039;50.000;9.064;2023-04-15T10:52:20;99598.66;;;10.56
73734;BMP280;62039;50.000;9.064;2023-04-15T10:54:48;99600.59;;;10.54
73734;BMP280;62039;50.000;9.064;2023-04-15T10:57:20;99598.00;;;10.54
73734;BMP280;62039;50.000;9.064;2023-04-15T11:00:10;99605.31;;;10.59
73734;BMP280;62039;50.000;9.064;2023-04-15T11:02:39;99603.53;;;10.59
73734;BMP280;62039;50.000;9.064;2023-04-15T11:05:10;99610.38;;;10.60
73734;BMP280;62039;50.000;9.064;2023-04-15T11:07:47;99613.97;;;10.59
73734;BMP280;62039;50.000;9.064;2023-04-15T11:13:18;99606.78;;;10.62
73734;BMP280;62039;50.000;9.064;2023-04-15T11:15:46;99615.25;;;10.64
73734;BMP280;62039;50.000;9.064;2023-04-15T11:18:14;99622.91;;;10.65
73734;BMP280;62039;50.000;9.064;2023-04-15T11:20:47;99618.47;;;10.66
73734;BMP280;62039;50.000;9.064;2023-04-15T11:23:14;99630.56;;;10.67
73734;BMP280;62039;50.000;9.064;2023-04-15T11:25:42;99627.34;;;10.65
73734;BMP280;62039;50.000;9.064;2023-04-15T11:28:10;99632.91;;;10.62
73734;BMP280;62039;50.000;9.064;2023-04-15T11:30:38;99630.81;;;10.57
73734;BMP280;62039;50.000;9.064;2023-04-15T11:33:07;99627.53;;;10.55
73734;BMP280;62039;50.000;9.064;2023-04-15T11:35:34;99634.72;;;10.53
73734;BMP280;62039;50.000;9.064;2023-04-15T11:38:07;99639.13;;;10.52
73734;BMP280;62039;50.000;9.064;2023-04-15T11:40:34;99655.16;;;10.49
73734;BMP280;62039;50.000;9.064;2023-04-15T11:43:06;99646.84;;;10.46
73734;BMP280;62039;50.000;9.064;2023-04-15T11:45:33;99650.97;;;10.40
73734;BMP280;62039;50.000;9.064;2023-04-15T11:48:07;99650.38;;;10.38
73734;BMP280;62039;50.000;9.064;2023-04-15T11:50:34;99657.88;;;10.33
73734;BMP280;62039;50.000;9.064;2023-04-15T11:53:05;99660.56;;;10.25
73734;BMP280;62039;50.000;9.064;2023-04-15T11:55:41;99664.22;;;10.16
73734;BMP280;62039;50.000;9.064;2023-04-15T11:58:09;99665.25;;;10.07
73734;BMP280;62039;50.000;9.064;2023-04-15T12:00:36;99667.91;;;9.99
73734;BMP280;62039;50.000;9.064;2023-04-15T12:03:21;99671.56;;;9.90
73734;BMP280;62039;50.000;9.064;2023-04-15T12:06:05;99666.38;;;9.81
73734;BMP280;62039;50.000;9.064;2023-04-15T12:11:40;99685.19;;;9.69
73734;BMP280;62039;50.000;9.064;2023-04-15T12:14:10;99685.34;;;9.67
73734;BMP280;62039;50.000;9.064;2023-04-15T12:16:39;99695.78;;;9.67
73734;BMP280;62039;50.000;9.064;2023-04-15T12:19:17;99693.31;;;9.66
73734;BMP280;62039;50.000;9.064;2023-04-15T12:21:46;99699.19;;;9.68
73734;BMP280;62039;50.000;9.064;2023-04-15T12:24:13;99705.38;;;9.67
73734;BMP280;62039;50.000;9.064;2023-04-15T12:26:47;99709.78;;;9.66
73734;BMP280;62039;50.000;9.064;2023-04-15T12:29:15;99701.00;;;9.67
73734;BMP280;62039;50.000;9.064;2023-04-15T12:31:47;99712.25;;;9.68
73734;BMP280;62039;50.000;9.064;2023-04-15T12:34:14;99717.44;;;9.68
73734;BMP280;62039;50.000;9.064;2023-04-15T12:36:41;99711.41;;;9.67
73734;BMP280;62039;50.000;9.064;2023-04-15T12:39:08;99720.88;;;9.68
73734;BMP280;62039;50.000;9.064;2023-04-15T12:41:35;99722.66;;;9.68
73734;BMP280;62039;50.000;9.064;2023-04-15T12:44:04;99716.47;;;9.69
73734;BMP280;62039;50.000;9.064;2023-04-15T12:46:32;99727.56;;;9.71
73734;BMP280;62039;50.000;9.064;2023-04-15T12:48:59;99731.97;;;9.70
73734;BMP280;62039;50.000;9.064;2023-04-15T12:51:26;99731.78;;;9.72
73734;BMP280;62039;50.000;9.064;2023-04-15T12:53:53;99731.59;;;9.73
73734;BMP280;62039;50.000;9.064;2023-04-15T12:56:19;99737.81;;;9.72
73734;BMP280;62039;50.000;9.064;2023-04-15T12:58:46;99738.78;;;9.71
73734;BMP280;62039;50.000;9.064;2023-04-15T13:01:16;99742.38;;;9.70
73734;BMP280;62039;50.000;9.064;2023-04-15T13:03:43;99735.88;;;9.66
73734;BMP280;62039;50.000;9.064;2023-04-15T13:06:10;99734.22;;;9.65
73734;BMP280;62039;50.000;9.064;2023-04-15T13:08:37;99732.44;;;9.66
73734;BMP280;62039;50.000;9.064;2023-04-15T13:11:13;99739.94;;;9.69
73734;BMP280;62039;50.000;9.064;2023-04-15T13:13:40;99748.22;;;9.72
73734;BMP280;62039;50.000;9.064;2023-04-15T13:16:07;99738.44;;;9.74
73734;BMP280;62039;50.000;9.064;2023-04-15T13:18:37;99746.94;;;9.76
73734;BMP280;62039;50.000;9.064;2023-04-15T13:21:04;99744.13;;;9.78
73734;BMP280;62039;50.000;9.064;2023-04-15T13:23:31;99751.16;;;9.77
73734;BMP280;62039;50.000;9.064;2023-04-15T13:25:57;99749.53;;;9.76
73734;BMP280;62039;50.000;9.064;2023-04-15T13:28:24;99746.94;;;9.76
73734;BMP280;62039;50.000;9.064;2023-04-15T13:30:51;99750.53;;;9.75
73734;BMP280;62039;50.000;9.064;2023-04-15T13:33:18;99758.50;;;9.74
73734;BMP280;62039;50.000;9.064;2023-04-15T13:35:48;99757.69;;;9.73
73734;BMP280;62039;50.000;9.064;2023-04-15T13:38:15;99759.47;;;9.73
73734;BMP280;62039;50.000;9.064;2023-04-15T13:40:42;99767.16;;;9.74
73734;BMP280;62039;50.000;9.064;2023-04-15T13:43:08;99764.53;;;9.74
73734;BMP280;62039;50.000;9.064;2023-04-15T13:45:35;99767.31;;;9.73
73734;BMP280;62039;50.000;9.064;2023-04-15T13:48:03;99772.69;;;9.71
73734;BMP280;62039;50.000;9.064;2023-04-15T13:50:30;99767.66;;;9.70
73734;BMP280;62039;50.000;9.064;2023-04-15T13:52:59;99770.06;;;9.71
73734;BMP280;62039;50.000;9.064;2023-04-15T13:55:26;99778.91;;;9.70
73734;BMP280;62039;50.000;9.064;2023-04-15T13:57:55;99778.41;;;9.67
73734;BMP280;62039;50.000;9.064;2023-04-15T14:00:22;99774.53;;;9.63
73734;BMP280;62039;50.000;9.064;2023-04-15T14:02:49;99770.56;;;9.59
73734;BMP280;62039;50.000;9.064;2023-04-15T14:05:16;99772.72;;;9.55
73734;BMP280;62039;50.000;9.064;2023-04-15T14:07:43;99775.16;;;9.49
73734;BMP280;62039;50.000;9.064;2023-04-15T14:10:13;99781.22;;;9.41
73734;BMP280;62039;50.000;9.064;2023-04-15T14:12:40;99795.22;;;9.32
73734;BMP280;62039;50.000;9.064;2023-04-15T14:15:08;99791.00;;;9.23
73734;BMP280;62039;50.000;9.064;2023-04-15T14:17:35;99787.59;;;9.14
73734;BMP280;62039;50.000;9.064;2023-04-15T14:20:03;99797.03;;;9.07
73734;BMP280;62039;50.000;9.064;2023-04-15T14:22:32;99803.72;;;9.01
73734;BMP280;62039;50.000;9.064;2023-04-15T14:24:59;99804.03;;;8.98
73734;BMP280;62039;50.000;9.064;2023-04-15T14:27:29;99799.97;;;8.96
73734;BMP280;62039;50.000;9.064;2023-04-15T14:29:55;99805.00;;;8.89